PWSweather.com
Personal Weather Stations
Station Observations
SELKIRK1
Ontario, Selkirk, ON N0A 1P0

OntarioSelkirk, ON N0A 1P0

Lat: 42.8083652, Lon: -79.94971040000001

Elevation: 583

Station Type: Acurite 5 in 1

http://gavinsurf.com

Latest ConditionsUpdated 6:10:02 AM EDT Thursday, Jun 21, 2018
Currently Today's Max Today's Min Today's Average
Temperature 60.5°F15.8°C 62.8°F17.1°C 58.8°F14.9°C 60.6°F15.9°C
Dew Point 57.5°F14.2°C 62.0°F16.7°C 57.1°F13.9°C 59.4°F15.2°C
Winds 2.3 mph NE3.7 kmh NE 9.2 mph -14.8 kmh - - 3.9 mph 6.3 kmh
Wind Gusts 3.5 mph5.6 kmh 10.4 mph16.7 kmh - -
Humidity 90% 99% 90% 96%
Pressure 31.86 in1078.9 mb 31.86 in1078.9 mb 31.86 in1078.9 mb -
Hour Temp Dew Point Humidity Winds Wind Gusts Pressure Precip Precip Rate Daily Precip Total
06:10 AM 60.5°F15.8°C 57.5°F14.2°C 90% 2.3 mph NE3.7 kmh NE 3.5 mph5.6 kmh 31.86 in1078.9 mb - 0.00 in0.0 mm 0.00 in0.0 mm
06:00 AM 60.1°F15.6°C 57.1°F13.9°C 90% 2.3 mph N3.7 kmh N 3.5 mph5.6 kmh 31.86 in1078.9 mb - 0.00 in0.0 mm 0.00 in0.0 mm
05:55 AM 60.1°F15.6°C 57.1°F13.9°C 90% 3.5 mph NE5.6 kmh NE 2.3 mph3.7 kmh 31.86 in1078.9 mb - 0.00 in0.0 mm 0.00 in0.0 mm
05:50 AM 60.1°F15.6°C 57.4°F14.1°C 91% 2.3 mph NNE3.7 kmh NNE 2.3 mph3.7 kmh 31.86 in1078.9 mb - 0.00 in0.0 mm 0.00 in0.0 mm
05:45 AM 60.1°F15.6°C 57.4°F14.1°C 91% 2.3 mph NNE3.7 kmh NNE 2.3 mph3.7 kmh 31.86 in1078.9 mb - 0.00 in0.0 mm 0.00 in0.0 mm
05:40 AM 60.1°F15.6°C 57.4°F14.1°C 91% 2.3 mph NE3.7 kmh NE 2.3 mph3.7 kmh 31.86 in1078.9 mb - 0.00 in0.0 mm 0.00 in0.0 mm
05:35 AM 60.1°F15.6°C 57.4°F14.1°C 91% 2.3 mph NE3.7 kmh NE 3.5 mph5.6 kmh 31.86 in1078.9 mb - 0.00 in0.0 mm 0.00 in0.0 mm
05:30 AM 60.2°F15.7°C 57.6°F14.2°C 91% 2.3 mph NE3.7 kmh NE 2.3 mph3.7 kmh 31.86 in1078.9 mb - 0.00 in0.0 mm 0.00 in0.0 mm
05:25 AM 60.3°F15.7°C 57.6°F14.2°C 91% 1.2 mph NE1.9 kmh NE 2.3 mph3.7 kmh 31.86 in1078.9 mb - 0.00 in0.0 mm 0.00 in0.0 mm
05:20 AM 60.3°F15.7°C 57.6°F14.2°C 91% 2.3 mph NE3.7 kmh NE 3.5 mph5.6 kmh 31.86 in1078.9 mb - 0.00 in0.0 mm 0.00 in0.0 mm
05:15 AM 60.5°F15.8°C 57.8°F14.3°C 91% 2.3 mph E3.7 kmh E 3.5 mph5.6 kmh 31.86 in1078.9 mb - 0.00 in0.0 mm 0.00 in0.0 mm
05:10 AM 60.5°F15.8°C 57.8°F14.3°C 91% 2.3 mph ENE3.7 kmh ENE 2.3 mph3.7 kmh 31.86 in1078.9 mb - 0.00 in0.0 mm 0.00 in0.0 mm
05:00 AM 60.5°F15.8°C 57.8°F14.3°C 91% 1.2 mph NE1.9 kmh NE 2.3 mph3.7 kmh 31.86 in1078.9 mb - 0.00 in0.0 mm 0.00 in0.0 mm
04:55 AM 60.5°F15.8°C 58.1°F14.5°C 92% 2.3 mph ENE3.7 kmh ENE 1.2 mph1.9 kmh 31.86 in1078.9 mb - 0.00 in0.0 mm 0.00 in0.0 mm
04:50 AM 60.5°F15.8°C 58.1°F14.5°C 92% 2.3 mph E3.7 kmh E 2.3 mph3.7 kmh 31.86 in1078.9 mb - 0.00 in0.0 mm 0.00 in0.0 mm
04:45 AM 60.5°F15.8°C 58.1°F14.5°C 92% 2.3 mph NE3.7 kmh NE 2.3 mph3.7 kmh 31.86 in1078.9 mb - 0.00 in0.0 mm 0.00 in0.0 mm
04:40 AM 60.5°F15.8°C 58.4°F14.7°C 93% 1.2 mph NE1.9 kmh NE 2.3 mph3.7 kmh 31.86 in1078.9 mb - 0.00 in0.0 mm 0.00 in0.0 mm
04:35 AM 60.5°F15.8°C 58.4°F14.7°C 93% 2.3 mph ENE3.7 kmh ENE 2.3 mph3.7 kmh 31.86 in1078.9 mb - 0.00 in0.0 mm 0.00 in0.0 mm
04:30 AM 60.4°F15.8°C 59.0°F15.0°C 95% 2.3 mph NE3.7 kmh NE 3.5 mph5.6 kmh 31.86 in1078.9 mb - 0.00 in0.0 mm 0.00 in0.0 mm
04:25 AM 60.1°F15.6°C 58.9°F14.9°C 96% 2.3 mph NE3.7 kmh NE 3.5 mph5.6 kmh 31.86 in1078.9 mb - 0.00 in0.0 mm 0.00 in0.0 mm
04:20 AM 59.9°F15.5°C 59.3°F15.2°C 98% 4.6 mph NNE7.4 kmh NNE 4.6 mph7.4 kmh 31.86 in1078.9 mb - 0.00 in0.0 mm 0.00 in0.0 mm
04:15 AM 59.9°F15.5°C 59.3°F15.2°C 98% 4.6 mph NNE7.4 kmh NNE 5.8 mph9.3 kmh 31.86 in1078.9 mb - 0.00 in0.0 mm 0.00 in0.0 mm
04:10 AM 59.9°F15.5°C 59.3°F15.2°C 98% 5.8 mph N9.3 kmh N 5.8 mph9.3 kmh 31.86 in1078.9 mb - 0.00 in0.0 mm 0.00 in0.0 mm
04:00 AM 59.4°F15.2°C 59.1°F15.1°C 99% 5.8 mph N9.3 kmh N 6.9 mph11.1 kmh 31.86 in1078.9 mb - 0.00 in0.0 mm 0.00 in0.0 mm
03:55 AM 59.2°F15.1°C 58.9°F14.9°C 99% 5.8 mph N9.3 kmh N 5.8 mph9.3 kmh 31.86 in1078.9 mb - 0.00 in0.0 mm 0.00 in0.0 mm
03:50 AM 58.8°F14.9°C 58.5°F14.7°C 99% 5.8 mph NNE9.3 kmh NNE 5.8 mph9.3 kmh 31.86 in1078.9 mb - 0.00 in0.0 mm 0.00 in0.0 mm
03:45 AM 58.8°F14.9°C 58.2°F14.6°C 98% 5.8 mph N9.3 kmh N 5.8 mph9.3 kmh 31.86 in1078.9 mb - 0.00 in0.0 mm 0.00 in0.0 mm
03:40 AM 59.1°F15.1°C 58.5°F14.7°C 98% 5.8 mph N9.3 kmh N 5.8 mph9.3 kmh 31.86 in1078.9 mb - 0.00 in0.0 mm 0.00 in0.0 mm
03:35 AM 59.4°F15.2°C 58.5°F14.7°C 97% 5.8 mph N9.3 kmh N 5.8 mph9.3 kmh 31.86 in1078.9 mb - 0.00 in0.0 mm 0.00 in0.0 mm
03:30 AM 59.6°F15.3°C 58.7°F14.8°C 97% 6.9 mph N11.1 kmh N 6.9 mph11.1 kmh 31.86 in1078.9 mb - 0.00 in0.0 mm 0.00 in0.0 mm
03:25 AM 59.6°F15.3°C 58.7°F14.8°C 97% 6.9 mph N11.1 kmh N 6.9 mph11.1 kmh 31.86 in1078.9 mb - 0.00 in0.0 mm 0.00 in0.0 mm
03:20 AM 59.9°F15.5°C 58.7°F14.8°C 96% 5.8 mph N9.3 kmh N 6.9 mph11.1 kmh 31.86 in1078.9 mb - 0.00 in0.0 mm 0.00 in0.0 mm
03:15 AM 60.1°F15.6°C 58.9°F14.9°C 96% 6.9 mph N11.1 kmh N 6.9 mph11.1 kmh 31.86 in1078.9 mb - 0.00 in0.0 mm 0.00 in0.0 mm
03:10 AM 60.3°F15.7°C 59.1°F15.1°C 96% 5.8 mph NNE9.3 kmh NNE 5.8 mph9.3 kmh 31.86 in1078.9 mb - 0.00 in0.0 mm 0.00 in0.0 mm
03:00 AM 60.3°F15.7°C 59.2°F15.1°C 96% 6.9 mph N11.1 kmh N 8.1 mph13.0 kmh 31.86 in1078.9 mb - 0.00 in0.0 mm 0.00 in0.0 mm
02:55 AM 60.6°F15.9°C 59.5°F15.3°C 96% 6.9 mph N11.1 kmh N 8.1 mph13.0 kmh 31.86 in1078.9 mb - 0.00 in0.0 mm 0.00 in0.0 mm
02:50 AM 61.3°F16.3°C 59.6°F15.3°C 94% 8.1 mph N13.0 kmh N 9.2 mph14.8 kmh 31.86 in1078.9 mb - 0.00 in0.0 mm 0.00 in0.0 mm
02:45 AM 61.2°F16.2°C 59.7°F15.4°C 95% 6.9 mph NNE11.1 kmh NNE 6.9 mph11.1 kmh 31.86 in1078.9 mb - 0.00 in0.0 mm 0.00 in0.0 mm
02:40 AM 61.5°F16.4°C 59.7°F15.4°C 94% 8.1 mph NNE13.0 kmh NNE 8.1 mph13.0 kmh 31.86 in1078.9 mb - 0.00 in0.0 mm 0.00 in0.0 mm
02:35 AM 61.3°F16.3°C 59.9°F15.5°C 95% 9.2 mph N14.8 kmh N 10.4 mph16.7 kmh 31.86 in1078.9 mb - 0.00 in0.0 mm 0.00 in0.0 mm
02:30 AM 60.8°F16.0°C 60.2°F15.7°C 98% 8.1 mph N13.0 kmh N 8.1 mph13.0 kmh 31.86 in1078.9 mb - 0.00 in0.0 mm 0.00 in0.0 mm
02:25 AM 60.6°F15.9°C 60.3°F15.7°C 99% 5.8 mph N9.3 kmh N 6.9 mph11.1 kmh 31.86 in1078.9 mb - 0.00 in0.0 mm 0.00 in0.0 mm
02:20 AM 60.6°F15.9°C 60.3°F15.7°C 99% 5.8 mph N9.3 kmh N 5.8 mph9.3 kmh 31.86 in1078.9 mb - 0.00 in0.0 mm 0.00 in0.0 mm
02:15 AM 60.6°F15.9°C 60.3°F15.7°C 99% 4.6 mph N7.4 kmh N 4.6 mph7.4 kmh 31.86 in1078.9 mb - 0.00 in0.0 mm 0.00 in0.0 mm
02:10 AM 60.6°F15.9°C 60.3°F15.7°C 99% 4.6 mph N7.4 kmh N 4.6 mph7.4 kmh 31.86 in1078.9 mb - 0.00 in0.0 mm 0.00 in0.0 mm
02:00 AM 60.8°F16.0°C 60.5°F15.8°C 99% 4.6 mph N7.4 kmh N 4.6 mph7.4 kmh 31.86 in1078.9 mb - 0.00 in0.0 mm 0.00 in0.0 mm
01:55 AM 61.0°F16.1°C 60.7°F15.9°C 99% 4.6 mph N7.4 kmh N 4.6 mph7.4 kmh 31.86 in1078.9 mb - 0.00 in0.0 mm 0.00 in0.0 mm
01:50 AM 60.8°F16.0°C 60.5°F15.8°C 99% 4.6 mph N7.4 kmh N 4.6 mph7.4 kmh 31.86 in1078.9 mb - 0.00 in0.0 mm 0.00 in0.0 mm
01:45 AM 60.5°F15.8°C 60.2°F15.7°C 99% 3.5 mph N5.6 kmh N 4.6 mph7.4 kmh 31.86 in1078.9 mb - 0.00 in0.0 mm 0.00 in0.0 mm
01:40 AM 60.5°F15.8°C 60.2°F15.7°C 99% 2.3 mph N3.7 kmh N 2.3 mph3.7 kmh 31.86 in1078.9 mb - 0.00 in0.0 mm 0.00 in0.0 mm
01:35 AM 60.5°F15.8°C 60.2°F15.7°C 99% 3.5 mph NNE5.6 kmh NNE 4.6 mph7.4 kmh 31.86 in1078.9 mb - 0.00 in0.0 mm 0.00 in0.0 mm
01:30 AM 60.5°F15.8°C 60.2°F15.7°C 99% 4.6 mph NNE7.4 kmh NNE 4.6 mph7.4 kmh 31.86 in1078.9 mb - 0.00 in0.0 mm 0.00 in0.0 mm
01:25 AM 60.3°F15.7°C 60.0°F15.6°C 99% 3.5 mph N5.6 kmh N 3.5 mph5.6 kmh 31.86 in1078.9 mb - 0.00 in0.0 mm 0.00 in0.0 mm
01:20 AM 60.3°F15.7°C 60.0°F15.6°C 99% 3.5 mph N5.6 kmh N 3.5 mph5.6 kmh 31.86 in1078.9 mb - 0.00 in0.0 mm 0.00 in0.0 mm
01:15 AM 60.3°F15.7°C 60.0°F15.6°C 99% 2.3 mph N3.7 kmh N 2.3 mph3.7 kmh 31.86 in1078.9 mb - 0.00 in0.0 mm 0.00 in0.0 mm
01:10 AM 60.6°F15.9°C 60.3°F15.7°C 99% 2.3 mph NE3.7 kmh NE 3.5 mph5.6 kmh 31.86 in1078.9 mb - 0.00 in0.0 mm 0.00 in0.0 mm
01:00 AM 61.2°F16.2°C 60.9°F16.1°C 99% 2.3 mph N3.7 kmh N 2.3 mph3.7 kmh 31.86 in1078.9 mb - 0.00 in0.0 mm 0.00 in0.0 mm
12:55 AM 61.2°F16.2°C 60.9°F16.1°C 99% 2.3 mph NE3.7 kmh NE 2.3 mph3.7 kmh 31.86 in1078.9 mb - 0.00 in0.0 mm 0.00 in0.0 mm
12:50 AM 61.5°F16.4°C 61.2°F16.2°C 99% Calm Calm -- 31.86 in1078.9 mb - 0.00 in0.0 mm 0.00 in0.0 mm
12:45 AM 61.5°F16.4°C 61.2°F16.2°C 99% Calm Calm -- 31.86 in1078.9 mb - 0.00 in0.0 mm 0.00 in0.0 mm
12:40 AM 61.7°F16.5°C 61.4°F16.3°C 99% Calm Calm 1.2 mph1.9 kmh 31.86 in1078.9 mb - 0.00 in0.0 mm 0.00 in0.0 mm
12:35 AM 61.7°F16.5°C 61.4°F16.3°C 99% 2.3 mph E3.7 kmh E 2.3 mph3.7 kmh 31.86 in1078.9 mb - 0.00 in0.0 mm 0.00 in0.0 mm
12:30 AM 61.9°F16.6°C 61.6°F16.4°C 99% 2.3 mph NE3.7 kmh NE 2.3 mph3.7 kmh 31.86 in1078.9 mb - 0.00 in0.0 mm 0.00 in0.0 mm
12:25 AM 62.1°F16.7°C 61.8°F16.6°C 99% 2.3 mph NNE3.7 kmh NNE 2.3 mph3.7 kmh 31.86 in1078.9 mb - 0.00 in0.0 mm 0.00 in0.0 mm
12:20 AM 62.3°F16.8°C 61.7°F16.5°C 98% 3.5 mph N5.6 kmh N 3.5 mph5.6 kmh 31.86 in1078.9 mb - 0.00 in0.0 mm 0.00 in0.0 mm
12:15 AM 62.5°F16.9°C 61.6°F16.4°C 97% 3.5 mph NNW5.6 kmh NNW 3.5 mph5.6 kmh 31.86 in1078.9 mb - 0.00 in0.0 mm 0.00 in0.0 mm
12:10 AM 62.8°F17.1°C 61.9°F16.6°C 97% 2.3 mph N3.7 kmh N 3.5 mph5.6 kmh 31.86 in1078.9 mb - 0.00 in0.0 mm 0.00 in0.0 mm
12:00 AM 62.8°F17.1°C 62.0°F16.7°C 97% 2.3 mph N3.7 kmh N 2.3 mph3.7 kmh 31.86 in1078.9 mb - 0.00 in0.0 mm 0.00 in0.0 mm